createdAt,value
2022-09-02T00:01:24.845Z,1.30
2022-09-02T00:03:55.115Z,1.13
2022-09-02T00:06:22.619Z,1.10
2022-09-02T00:08:50.046Z,1.25
2022-09-02T00:11:24.701Z,1.52
2022-09-02T00:13:52.068Z,1.08
2022-09-02T00:16:20.265Z,1.10
2022-09-02T00:18:48.306Z,1.23
2022-09-02T00:21:15.790Z,1.10
2022-09-02T00:23:44.014Z,1.15
2022-09-02T00:26:11.940Z,1.10
2022-09-02T00:28:39.636Z,1.42
2022-09-02T00:31:11.129Z,1.30
2022-09-02T00:33:39.633Z,1.38
2022-09-02T00:36:07.492Z,1.20
2022-09-02T00:38:35.857Z,1.20
2022-09-02T00:41:06.005Z,1.20
2022-09-02T00:43:41.803Z,1.25
2022-09-02T00:46:09.713Z,1.30
2022-09-02T00:48:41.328Z,1.20
2022-09-02T00:51:10.929Z,1.35
2022-09-02T00:53:40.881Z,1.27
2022-09-02T00:56:16.695Z,1.10
2022-09-02T00:58:44.206Z,1.10
2022-09-02T01:01:11.903Z,1.15
2022-09-02T01:03:40.867Z,1.40
2022-09-02T01:06:08.734Z,1.20
2022-09-02T01:08:39.275Z,1.45
2022-09-02T01:11:07.647Z,1.30
2022-09-02T01:13:39.495Z,1.10
2022-09-02T01:16:24.712Z,1.30
2022-09-02T01:18:56.090Z,1.30
2022-09-02T01:21:23.253Z,1.27
2022-09-02T01:23:51.230Z,1.40
2022-09-02T01:26:19.006Z,1.20
2022-09-02T01:28:46.328Z,1.45
2022-09-02T01:31:13.321Z,1.30
2022-09-02T01:33:40.649Z,1.17
2022-09-02T01:36:11.035Z,1.45
2022-09-02T01:38:38.783Z,1.17
2022-09-02T01:41:06.963Z,1.55
2022-09-02T01:43:34.498Z,1.40
2022-09-02T01:46:02.778Z,1.40
2022-09-02T01:48:31.341Z,1.40
2022-09-02T01:51:05.661Z,1.35
2022-09-02T01:53:32.796Z,1.30
2022-09-02T01:56:00.664Z,1.63
2022-09-02T01:58:31.319Z,1.25
2022-09-02T02:00:58.214Z,1.35
2022-09-02T02:03:25.358Z,1.50
2022-09-02T02:05:53.190Z,1.30
2022-09-02T02:08:21.498Z,1.20
2022-09-02T02:10:48.720Z,1.45
2022-09-02T02:13:16.194Z,1.60
2022-09-02T02:15:44.276Z,1.50
2022-09-02T02:18:11.872Z,1.13
2022-09-02T02:20:39.203Z,1.23
2022-09-02T02:23:06.813Z,1.17
2022-09-02T02:25:33.851Z,1.20
2022-09-02T02:28:00.855Z,1.40
2022-09-02T02:30:29.857Z,1.58
2022-09-02T02:32:57.449Z,1.08
2022-09-02T02:35:25.727Z,1.13
2022-09-02T02:37:53.384Z,1.25
2022-09-02T02:40:22.553Z,1.40
2022-09-02T02:42:53.241Z,1.50
2022-09-02T02:45:23.192Z,1.38
2022-09-02T02:47:51.269Z,1.20
2022-09-02T02:50:21.372Z,1.27
2022-09-02T02:52:49.727Z,1.60
2022-09-02T02:55:19.130Z,1.55
2022-09-02T02:57:46.899Z,1.17
2022-09-02T03:00:19.598Z,1.23
2022-09-02T03:02:48.811Z,1.50
2022-09-02T03:05:19.458Z,1.70
2022-09-02T03:07:47.203Z,1.33
2022-09-02T03:10:15.772Z,1.30
2022-09-02T03:12:47.789Z,1.30
2022-09-02T03:15:19.456Z,1.42
2022-09-02T03:17:48.660Z,1.40
2022-09-02T03:20:16.965Z,1.63
2022-09-02T03:22:50.574Z,1.20
2022-09-02T03:25:20.775Z,1.42
2022-09-02T03:27:49.321Z,1.40
2022-09-02T03:30:25.857Z,1.38
2022-09-02T03:33:03.845Z,1.60
2022-09-02T03:35:34.097Z,1.67
2022-09-02T03:38:01.695Z,1.33
2022-09-02T03:40:29.994Z,1.23
2022-09-02T03:43:00.174Z,1.60
2022-09-02T03:45:29.118Z,1.50
2022-09-02T03:47:56.835Z,1.60
2022-09-02T03:50:32.030Z,1.38
2022-09-02T03:53:00.754Z,1.88
2022-09-02T03:55:29.205Z,1.60
2022-09-02T03:57:56.422Z,1.80
2022-09-02T04:00:29.857Z,1.83
2022-09-02T04:02:58.599Z,1.92
2022-09-02T04:05:25.561Z,1.95
2022-09-02T04:07:55.244Z,1.98
2022-09-02T04:10:23.789Z,2.13
2022-09-02T04:12:51.696Z,1.85
2022-09-02T04:15:19.885Z,1.40
2022-09-02T04:17:49.247Z,1.73
2022-09-02T04:20:19.154Z,1.40
2022-09-02T04:22:46.028Z,1.63
2022-09-02T04:25:13.633Z,1.67
2022-09-02T04:27:40.724Z,1.50
2022-09-02T04:30:09.511Z,1.60
2022-09-02T04:32:40.935Z,1.67
2022-09-02T04:35:09.995Z,1.90
2022-09-02T04:37:37.821Z,1.38
2022-09-02T04:40:05.288Z,1.85
2022-09-02T04:42:34.135Z,1.90
2022-09-02T04:45:01.214Z,1.63
2022-09-02T04:47:28.396Z,2.10
2022-09-02T04:49:56.523Z,1.90
2022-09-02T04:52:23.875Z,2.13
2022-09-02T04:54:51.322Z,2.22
2022-09-02T04:57:18.523Z,1.98
2022-09-02T04:59:45.751Z,1.95
2022-09-02T05:02:13.107Z,1.67
2022-09-02T05:04:41.178Z,1.70
2022-09-02T05:07:16.560Z,2.05
2022-09-02T05:09:45.865Z,1.83
2022-09-02T05:12:15.002Z,1.60
2022-09-02T05:14:50.115Z,1.83
2022-09-02T05:17:19.397Z,1.90
2022-09-02T05:19:48.308Z,2.20
2022-09-02T05:22:16.698Z,2.00
2022-09-02T05:24:44.533Z,1.90
2022-09-02T05:27:16.214Z,2.22
2022-09-02T05:29:45.561Z,1.48
2022-09-02T05:32:15.734Z,1.70
2022-09-02T05:34:45.122Z,1.65
2022-09-02T05:37:12.816Z,2.03
2022-09-02T05:39:40.207Z,2.13
2022-09-02T05:42:08.705Z,1.95
2022-09-02T05:44:37.238Z,2.05
2022-09-02T05:47:06.080Z,2.35
2022-09-02T05:49:34.139Z,1.90
2022-09-02T05:52:10.395Z,1.90
2022-09-02T05:54:46.196Z,1.88
2022-09-02T05:57:17.588Z,2.00
2022-09-02T06:00:17.899Z,1.92
2022-09-02T06:02:55.574Z,1.48
2022-09-02T06:05:34.471Z,1.75
2022-09-02T06:08:21.898Z,1.33
2022-09-02T06:10:49.624Z,2.03
2022-09-02T06:13:22.980Z,1.88
2022-09-02T06:15:53.144Z,1.65
2022-09-02T06:18:25.069Z,1.30
2022-09-02T06:20:54.961Z,1.77
2022-09-02T06:23:23.503Z,1.73
2022-09-02T06:25:51.804Z,1.17
2022-09-02T06:28:19.746Z,1.77
2022-09-02T06:30:50.919Z,1.83
2022-09-02T06:33:22.693Z,1.48
2022-09-02T06:35:50.913Z,1.48
2022-09-02T06:38:20.468Z,1.35
2022-09-02T06:40:51.071Z,1.92
2022-09-02T06:43:23.023Z,2.10
2022-09-02T06:46:02.920Z,1.20
2022-09-02T06:48:31.274Z,1.58
2022-09-02T06:50:58.728Z,1.60
2022-09-02T06:53:27.890Z,1.50
2022-09-02T06:55:54.739Z,1.50
2022-09-02T06:58:22.230Z,1.40
2022-09-02T07:00:49.430Z,1.58
2022-09-02T07:03:35.188Z,1.17
2022-09-02T07:06:06.516Z,1.52
2022-09-02T07:08:34.487Z,1.60
2022-09-02T07:11:02.452Z,1.17
2022-09-02T07:13:30.718Z,1.20
2022-09-02T07:15:58.423Z,1.48
2022-09-02T07:18:25.604Z,1.30
2022-09-02T07:20:53.531Z,1.45
2022-09-02T07:23:21.509Z,1.40
2022-09-02T07:25:48.709Z,1.50
2022-09-02T07:28:16.499Z,1.45
2022-09-02T07:30:44.805Z,1.55
2022-09-02T07:33:16.549Z,1.33
2022-09-02T07:35:45.970Z,1.40
2022-09-02T07:38:16.146Z,1.23
2022-09-02T07:40:44.360Z,0.95
2022-09-02T07:43:12.133Z,1.30
2022-09-02T07:45:43.659Z,1.05
2022-09-02T07:48:11.214Z,1.20
2022-09-02T07:50:39.040Z,1.20
2022-09-02T07:53:08.644Z,0.90
2022-09-02T07:55:41.130Z,1.20
2022-09-02T07:58:08.589Z,1.10
2022-09-02T08:00:36.215Z,1.50
2022-09-02T08:03:10.514Z,1.23
2022-09-02T08:05:45.103Z,1.30
2022-09-02T08:08:12.035Z,1.33
2022-09-02T08:10:39.981Z,1.30
2022-09-02T08:13:07.273Z,1.08
2022-09-02T08:15:36.031Z,0.98
2022-09-02T08:18:03.883Z,1.08
2022-09-02T08:20:30.778Z,1.15
2022-09-02T08:23:10.730Z,0.90
2022-09-02T08:25:40.817Z,1.08
2022-09-02T08:28:08.073Z,1.10
2022-09-02T08:30:35.500Z,1.00
2022-09-02T08:33:02.443Z,1.15
2022-09-02T08:35:29.339Z,1.05
2022-09-02T08:37:59.522Z,0.90
2022-09-02T08:40:38.089Z,0.80
2022-09-02T08:43:38.337Z,1.13
2022-09-02T08:46:08.703Z,0.77
2022-09-02T08:48:45.178Z,1.00
2022-09-02T08:51:20.095Z,1.00
2022-09-02T08:53:51.283Z,1.02
2022-09-02T08:56:19.295Z,0.90
2022-09-02T08:58:50.362Z,1.08
2022-09-02T09:01:26.299Z,1.00
2022-09-02T09:04:26.199Z,1.10
2022-09-02T09:10:26.856Z,1.05
2022-09-02T09:13:21.890Z,1.20
2022-09-02T09:15:54.525Z,1.08
2022-09-02T09:18:44.497Z,1.05
2022-09-02T09:21:12.165Z,1.20
2022-09-02T09:23:40.961Z,1.20
2022-09-02T09:26:17.105Z,1.20
2022-09-02T09:28:47.102Z,0.90
2022-09-02T09:31:18.478Z,0.85
2022-09-02T09:34:03.941Z,0.90
2022-09-02T09:36:45.243Z,1.08
2022-09-02T09:39:17.934Z,0.90
2022-09-02T09:41:46.105Z,0.98
2022-09-02T09:44:34.824Z,1.05
2022-09-02T09:47:04.281Z,1.00
2022-09-02T09:49:33.462Z,0.98
2022-09-02T09:52:00.419Z,0.90
2022-09-02T09:54:28.050Z,0.90
2022-09-02T09:56:56.358Z,0.88
2022-09-02T09:59:42.562Z,0.95
2022-09-02T10:02:34.412Z,1.10
2022-09-02T10:05:24.493Z,0.80
2022-09-02T10:08:15.081Z,0.95
2022-09-02T10:10:59.038Z,0.82
2022-09-02T10:13:44.133Z,0.82
2022-09-02T10:16:48.153Z,1.30
2022-09-02T10:19:34.321Z,1.15
2022-09-02T10:22:10.873Z,1.20
2022-09-02T10:24:46.157Z,0.80
2022-09-02T10:27:19.138Z,1.05
2022-09-02T10:30:04.557Z,0.90
2022-09-02T10:32:45.022Z,0.90
2022-09-02T10:35:15.896Z,0.90
2022-09-02T10:38:00.941Z,0.80
2022-09-02T10:40:41.715Z,1.02
2022-09-02T10:43:19.159Z,0.85
2022-09-02T10:45:58.074Z,1.20
2022-09-02T10:48:36.934Z,0.68
2022-09-02T10:51:14.559Z,1.02
2022-09-02T10:53:46.644Z,0.88
2022-09-02T10:56:21.718Z,1.08
2022-09-02T10:59:01.019Z,0.90
2022-09-02T11:01:40.640Z,0.65
2022-09-02T11:04:27.953Z,0.80
2022-09-02T11:07:02.963Z,0.82
2022-09-02T11:09:56.286Z,0.90
2022-09-02T11:12:50.062Z,1.10
2022-09-02T11:15:43.105Z,0.65
2022-09-02T11:18:15.150Z,0.80
2022-09-02T11:21:00.877Z,1.13
2022-09-02T11:23:34.656Z,1.00
2022-09-02T11:26:14.107Z,0.80
2022-09-02T11:28:52.584Z,0.82
2022-09-02T11:31:39.292Z,0.80
2022-09-02T11:34:06.266Z,0.70
2022-09-02T11:36:39.206Z,0.80
2022-09-02T11:39:30.415Z,0.85
2022-09-02T11:42:32.414Z,1.00
2022-09-02T11:45:10.348Z,0.80
2022-09-02T11:47:52.900Z,1.00
2022-09-02T11:50:52.863Z,0.90
2022-09-02T11:53:25.927Z,0.60
2022-09-02T11:56:16.938Z,0.60
2022-09-02T11:58:45.412Z,0.95
2022-09-02T12:01:15.471Z,0.65
2022-09-02T12:04:27.549Z,0.75
2022-09-02T12:07:08.345Z,0.70
2022-09-02T12:12:37.390Z,0.60
2022-09-02T12:15:11.526Z,0.90
2022-09-02T12:17:46.247Z,0.98
2022-09-02T12:20:43.306Z,0.98
2022-09-02T12:23:53.145Z,0.95
2022-09-02T12:26:44.816Z,0.60
2022-09-02T12:29:19.587Z,0.77
2022-09-02T12:31:52.860Z,0.70
2022-09-02T12:34:22.933Z,0.98
2022-09-02T12:36:56.883Z,0.88
2022-09-02T12:39:27.401Z,1.00
2022-09-02T12:42:00.618Z,0.65
2022-09-02T12:44:54.983Z,0.90
2022-09-02T12:47:49.844Z,0.60
2022-09-02T12:50:44.147Z,0.60
2022-09-02T12:53:23.196Z,0.70
2022-09-02T12:56:13.144Z,0.68
2022-09-02T12:58:46.103Z,0.70
2022-09-02T13:01:36.174Z,0.80
2022-09-02T13:04:22.404Z,1.00
2022-09-02T13:07:11.078Z,0.80
2022-09-02T13:09:57.016Z,0.80
2022-09-02T13:12:45.130Z,0.88
2022-09-02T13:15:24.236Z,0.75
2022-09-02T13:18:25.231Z,0.60
2022-09-02T13:20:58.065Z,0.88
2022-09-02T13:24:02.586Z,0.63
2022-09-02T13:26:58.733Z,0.90
2022-09-02T13:29:44.014Z,0.85
2022-09-02T13:32:10.966Z,1.05
2022-09-02T13:34:43.255Z,1.00
2022-09-02T13:37:34.040Z,0.90
2022-09-02T13:40:07.417Z,1.00
2022-09-02T13:42:34.489Z,0.70
2022-09-02T13:45:15.690Z,0.88
2022-09-02T13:47:48.745Z,0.80
2022-09-02T13:50:19.329Z,0.75
2022-09-02T13:55:49.991Z,0.90
2022-09-02T13:58:22.897Z,0.93
2022-09-02T14:00:50.104Z,0.80
2022-09-02T14:03:19.511Z,0.70
2022-09-02T14:05:52.839Z,0.73
2022-09-02T14:08:23.605Z,1.00
2022-09-02T14:10:53.814Z,0.70
2022-09-02T14:13:22.913Z,0.88
2022-09-02T14:15:50.292Z,0.90
2022-09-02T14:18:23.150Z,1.10
2022-09-02T14:20:53.203Z,0.77
2022-09-02T14:23:20.307Z,0.80
2022-09-02T14:25:56.544Z,1.15
2022-09-02T14:28:26.586Z,1.10
2022-09-02T14:31:07.115Z,0.77
2022-09-02T14:33:40.130Z,0.70
2022-09-02T14:36:20.424Z,1.00
2022-09-02T14:38:47.347Z,0.80
2022-09-02T14:41:17.490Z,1.02
2022-09-02T14:43:49.350Z,0.63
2022-09-02T14:46:54.551Z,1.20
2022-09-02T14:49:39.354Z,0.95
2022-09-02T14:52:16.434Z,0.93
2022-09-02T14:54:49.317Z,0.80
2022-09-02T14:57:33.729Z,1.17
2022-09-02T15:00:05.419Z,0.90
2022-09-02T15:02:34.712Z,1.00
2022-09-02T15:05:07.302Z,0.90
2022-09-02T15:07:34.868Z,0.77
2022-09-02T15:10:04.167Z,0.95
2022-09-02T15:12:41.583Z,1.17
2022-09-02T15:15:08.893Z,0.90
2022-09-02T15:17:35.828Z,1.00
2022-09-02T15:20:03.202Z,0.82
2022-09-02T15:22:31.131Z,0.75
2022-09-02T15:25:07.861Z,0.77
2022-09-02T15:27:35.291Z,0.88
2022-09-02T15:30:02.379Z,0.77
2022-09-02T15:32:29.432Z,0.98
2022-09-02T15:34:57.765Z,1.08
2022-09-02T15:37:27.536Z,0.88
2022-09-02T15:39:54.475Z,1.00
2022-09-02T15:42:21.723Z,1.00
2022-09-02T15:44:48.667Z,0.90
2022-09-02T15:47:15.522Z,0.85
2022-09-02T15:49:43.124Z,1.00
2022-09-02T15:52:10.113Z,1.10
2022-09-02T15:54:37.021Z,0.90
2022-09-02T15:57:04.223Z,0.93
2022-09-02T15:59:31.106Z,0.90
2022-09-02T16:01:58.768Z,1.20
2022-09-02T16:04:27.347Z,1.30
2022-09-02T16:06:54.441Z,0.73
2022-09-02T16:09:21.976Z,1.02
2022-09-02T16:11:53.723Z,1.17
2022-09-02T16:14:21.631Z,1.00
2022-09-02T16:16:49.736Z,1.08
2022-09-02T16:19:21.454Z,0.82
2022-09-02T16:21:49.853Z,1.30
2022-09-02T16:24:19.949Z,0.90
2022-09-02T16:26:47.081Z,1.48
2022-09-02T16:29:15.950Z,1.40
2022-09-02T16:31:45.878Z,0.93
2022-09-02T16:34:24.557Z,1.00
2022-09-02T16:36:51.751Z,1.10
2022-09-02T16:39:19.860Z,0.90
2022-09-02T16:41:52.171Z,0.88
2022-09-02T16:44:21.931Z,1.10
2022-09-02T16:46:50.511Z,1.02
2022-09-02T16:49:20.262Z,0.75
2022-09-02T16:51:49.505Z,0.88
2022-09-02T16:54:21.374Z,0.90
2022-09-02T16:56:59.922Z,0.98
2022-09-02T16:59:27.394Z,1.00
2022-09-02T17:01:54.378Z,1.15
2022-09-02T17:04:21.258Z,0.70
2022-09-02T17:06:48.403Z,0.82
2022-09-02T17:09:16.339Z,0.88
2022-09-02T17:11:45.163Z,0.90
2022-09-02T17:14:16.290Z,1.55
2022-09-02T17:16:49.353Z,1.13
2022-09-02T17:21:51.787Z,1.13
2022-09-02T17:24:24.009Z,1.20
2022-09-02T17:26:54.451Z,0.95
2022-09-02T17:32:10.007Z,0.90
2022-09-02T17:34:37.498Z,1.02
2022-09-02T17:37:05.252Z,1.00
2022-09-02T17:39:34.030Z,1.20
2022-09-02T17:42:02.305Z,1.13
2022-09-02T17:44:38.738Z,1.20
2022-09-02T17:47:14.877Z,1.13
2022-09-02T17:49:44.145Z,1.15
2022-09-02T17:52:17.219Z,1.13
2022-09-02T17:54:45.772Z,1.17
2022-09-02T17:57:43.158Z,1.10
2022-09-02T18:00:10.535Z,0.82
2022-09-02T18:02:47.877Z,1.00
2022-09-02T18:05:22.694Z,0.93
2022-09-02T18:08:23.282Z,1.10
2022-09-02T18:10:58.017Z,1.10
2022-09-02T18:14:01.987Z,1.05
2022-09-02T18:16:37.032Z,0.93
2022-09-02T18:19:13.156Z,1.20
2022-09-02T18:22:03.319Z,1.00
2022-09-02T18:24:43.870Z,1.20
2022-09-02T18:27:20.050Z,0.95
2022-09-02T18:30:07.464Z,1.33
2022-09-02T18:33:09.997Z,0.98
2022-09-02T18:36:11.246Z,1.27
2022-09-02T18:39:00.251Z,1.10
2022-09-02T18:42:21.398Z,1.67
2022-09-02T18:45:07.543Z,1.60
2022-09-02T18:47:45.823Z,1.45
2022-09-02T18:50:44.981Z,1.27
2022-09-02T18:53:13.076Z,1.58
2022-09-02T18:55:40.878Z,1.40
2022-09-02T18:58:33.941Z,1.20
2022-09-02T19:01:29.763Z,1.00
2022-09-02T19:03:59.793Z,1.40
2022-09-02T19:06:30.947Z,1.25
2022-09-02T19:09:06.791Z,1.20
2022-09-02T19:11:36.305Z,1.50
2022-09-02T19:14:18.316Z,1.65
2022-09-02T19:16:45.262Z,1.52
2022-09-02T19:19:13.930Z,1.25
2022-09-02T19:21:51.278Z,1.20
2022-09-02T19:24:24.593Z,1.30
2022-09-02T19:26:56.517Z,1.50
2022-09-02T19:29:24.425Z,1.60
2022-09-02T19:31:54.665Z,1.48
2022-09-02T19:34:22.805Z,1.40
2022-09-02T19:36:52.536Z,1.40
2022-09-02T19:39:19.519Z,1.60
2022-09-02T19:41:47.961Z,1.60
2022-09-02T19:44:17.416Z,1.80
2022-09-02T19:47:24.725Z,2.70
2022-09-02T19:49:31.617Z,1.58
2022-09-02T19:51:59.008Z,1.65
2022-09-02T19:54:26.515Z,1.60
2022-09-02T19:56:53.492Z,1.63
2022-09-02T19:59:20.481Z,1.58
2022-09-02T20:01:47.517Z,1.50
2022-09-02T20:04:15.935Z,1.42
2022-09-02T20:06:43.377Z,1.80
2022-09-02T20:09:10.730Z,1.67
2022-09-02T20:11:40.954Z,1.90
2022-09-02T20:14:08.067Z,1.35
2022-09-02T20:16:35.187Z,1.50
2022-09-02T20:19:02.647Z,1.27
2022-09-02T20:21:42.201Z,1.17
2022-09-02T20:24:10.588Z,1.40
2022-09-02T20:26:49.862Z,1.58
2022-09-02T20:29:32.787Z,1.02
2022-09-02T20:34:47.779Z,1.40
2022-09-02T20:37:32.971Z,1.30
2022-09-02T20:40:15.329Z,1.27
2022-09-02T20:42:45.217Z,1.30
2022-09-02T20:45:12.493Z,1.50
2022-09-02T20:47:54.556Z,1.40
2022-09-02T20:50:43.325Z,1.05
2022-09-02T20:53:44.044Z,1.20
2022-09-02T20:56:21.093Z,1.20
2022-09-02T20:59:11.291Z,1.17
2022-09-02T21:01:41.890Z,1.20
2022-09-02T21:04:20.962Z,1.50
2022-09-02T21:07:20.887Z,1.20
2022-09-02T21:10:09.356Z,1.77
2022-09-02T21:12:52.544Z,1.30
2022-09-02T21:15:32.462Z,1.00
2022-09-02T21:18:19.021Z,1.05
2022-09-02T21:20:48.895Z,0.95
2022-09-02T21:23:32.025Z,1.10
2022-09-02T21:26:07.697Z,1.20
2022-09-02T21:28:41.928Z,1.10
2022-09-02T21:33:42.499Z,1.17
2022-09-02T21:36:13.285Z,1.02
2022-09-02T21:38:45.931Z,1.35
2022-09-02T21:41:29.806Z,1.23
2022-09-02T21:44:16.878Z,1.20
2022-09-02T21:47:03.822Z,1.02
2022-09-02T21:49:42.901Z,0.98
2022-09-02T21:52:38.667Z,1.10
2022-09-02T21:55:44.630Z,1.00
2022-09-02T21:58:34.283Z,0.90
2022-09-02T22:01:11.320Z,1.00
2022-09-02T22:03:42.750Z,1.10
2022-09-02T22:06:23.416Z,1.10
2022-09-02T22:09:04.574Z,1.10
2022-09-02T22:11:39.062Z,1.00
2022-09-02T22:14:35.271Z,1.13
2022-09-02T22:17:14.891Z,0.90
2022-09-02T22:19:43.263Z,1.02
2022-09-02T22:22:17.027Z,0.95
2022-09-02T22:24:47.687Z,1.08
2022-09-02T22:27:21.337Z,1.00
2022-09-02T22:30:12.167Z,1.30
2022-09-02T22:32:52.837Z,1.10
2022-09-02T22:35:26.524Z,0.93
2022-09-02T22:38:02.362Z,0.82
2022-09-02T22:40:34.487Z,1.13
2022-09-02T22:43:10.016Z,1.15
2022-09-02T22:46:14.178Z,1.00
2022-09-02T22:49:07.387Z,1.00
2022-09-02T22:52:06.029Z,1.10
2022-09-02T22:54:32.998Z,1.00
2022-09-02T22:57:11.906Z,0.93
2022-09-02T23:00:05.593Z,1.00
2022-09-02T23:02:42.853Z,0.98
2022-09-02T23:05:44.320Z,0.82
2022-09-02T23:08:13.483Z,1.08
2022-09-02T23:10:54.835Z,1.20
2022-09-02T23:13:43.771Z,1.15
2022-09-02T23:16:28.255Z,1.10
2022-09-02T23:21:41.918Z,0.85
2022-09-02T23:24:13.388Z,1.05
2022-09-02T23:26:51.842Z,1.10
2022-09-02T23:29:26.445Z,1.08
2022-09-02T23:32:23.866Z,1.20
2022-09-02T23:35:12.617Z,0.90
2022-09-02T23:37:44.996Z,0.90
2022-09-02T23:40:21.352Z,1.17
2022-09-02T23:42:50.038Z,1.10
2022-09-02T23:45:23.792Z,0.98
2022-09-02T23:48:11.322Z,0.90
2022-09-02T23:50:57.589Z,0.95
2022-09-02T23:53:40.337Z,0.98
2022-09-02T23:56:29.767Z,1.00
2022-09-02T23:59:28.186Z,0.93
